FVE - Northern Aroostook Rgnl

Pirep is a free, collaborative database of all public and private airports located within the United States. All pilots are welcome to contribute, edit, and improve any airport they have local knowledge about, no registration required.
Are you familiar with this airport? Help out other pilots by adding your local knowledge.
Uploaded photos will be licensed under a CC BY-SA 4.0 license. Please only upload photos you have the rights to use.
Tags
Public
Undocu­mented
METAR / TAF
Webcam
Edit Tags
Food
Camping
Lodging
Car Rental
Bicycles
Swimming
Golfing
Fishing
Hot Springs
Museum
Flying Clubs
Airpark
Upcoming Events
No upcoming events. Is anything happening here soon?
*
*
*

Where exactly on/near the airport is this event taking place?

Is there a webpage with more information for this event?

Who should be contacted for more information?

What is this event all about?

Repeat every
Description
Transient Parking
Fuel Location
Landing & Tie-down Fees
Crew Car Availability
Flying Clubs
WiFi Access
Airport Statistics
Location: Frenchville, ME
Elevation: 987ft
Sectional: Halifax
Activation date: Jun 1972
Fuel: 100LL, A (prices)
Runway 14/32: 4,600ft
Access: Open to the public
Current Weather — MVFR
  • Weather data is strictly informational and not for flight planning purposes.
  • METAR
    2024-04-22 02:53:00 EDT
    Ceiling Wind Temperature Dewpoint Weather Visbility
    1,600ft 320° @ 18kt, gusts 26kt 30°F 23°F N/A 10SM
    Clouds: Overcast @ 1,600ft
    Raw: KFVE 220653Z AUTO 32018G26KT 10SM OVC016 M01/M05 A2962 RMK AO2 PK WND 32026/0646 SLP038 T10111050
  • TAF
    2024-04-22 03:00:00 EDT – 2024-04-22 04:00:00 EDT
    Ceiling Wind Weather Visbility
    1,500ft 230° @ 8kt N/A 6SM
    Clouds: Broken @ 1,500ft
    Raw: KFVE 220642Z 2207/2306 23008KT P6SM BKN015 FM220800 30012G23KT 6SM BR VCSH BKN025 FM221000 31015G27KT P6SM SCT050 FM222200 29009KT P6SM FEW070
  • TAF
    2024-04-22 04:00:00 EDT – 2024-04-22 06:00:00 EDT
    Ceiling Wind Weather Visbility
    2,500ft 300° @ 12kt, gusts 23kt Mist, showers in vicinity 6SM
    Clouds: Broken @ 2,500ft
    Raw: KFVE 220642Z 2207/2306 23008KT P6SM BKN015 FM220800 30012G23KT 6SM BR VCSH BKN025 FM221000 31015G27KT P6SM SCT050 FM222200 29009KT P6SM FEW070
  • TAF
    2024-04-22 06:00:00 EDT – 2024-04-22 18:00:00 EDT
    Ceiling Wind Weather Visbility
    Sky clear 310° @ 15kt, gusts 27kt N/A 6SM
    Clouds: Scattered @ 5,000ft
    Raw: KFVE 220642Z 2207/2306 23008KT P6SM BKN015 FM220800 30012G23KT 6SM BR VCSH BKN025 FM221000 31015G27KT P6SM SCT050 FM222200 29009KT P6SM FEW070
  • TAF
    2024-04-22 18:00:00 EDT – 2024-04-23 02:00:00 EDT
    Ceiling Wind Weather Visbility
    Sky clear 290° @ 9kt N/A 6SM
    Clouds: Few @ 7,000ft
    Raw: KFVE 220642Z 2207/2306 23008KT P6SM BKN015 FM220800 30012G23KT 6SM BR VCSH BKN025 FM221000 31015G27KT P6SM SCT050 FM222200 29009KT P6SM FEW070
Click/tap to add an annotation marker to the map
Direct links to live image URLs will be displayed inline on this page. URLs to separate webpages will be linked to.
URL:
Direct links to live image URLs will be displayed inline on this page. URLs to separate webpages will be linked to.
URL:
Remarks
  • Wildlife on & invof arpt.
  • For cd ctc boston artcc at 603-879-6859.
  • Actvt reil rwy 14 & 32; papi rwy 32; mirl rwy 14/32 - ctaf.
  • Call 207-543-6300 for avbl.
  • Amgr cell 207-436-0715. email frenchvilleairport@gmail.com.
  • For fuel aft hrs call amgr 207-436-1350.
Comments
Leave a comment What was your experience like at this airport?